SCIR

Robinson Crusoe Airport

Airport
ICAO code
SCIR
Summary
ICAO Region
CARSAM
ICAO Territory
Location

Isla Robinson Crusoe, Valparaiso

Serving
San Juan Bautista
Elevation
433 ft
Coordinates
33° 39' 54" S , 78° 55' 47" W
KCC
Cfb
Metar
Observation
SCIR 122100Z 32011KT 9999 FEW013 BKN040 18/11 Q1019
Station
ROBINSON CRUSOE
Date/Time
2022-08-12 21:00:00
Wind direction
320°
Wind speed
11 kts
Lowest cloud amount
few clouds
Temperature
18°C
Dew point
11°C
Humidity
63%
QNH
1019 hPa
Weather condition
n/a

Airport on the island of Robinson Crusoe, Chile.

Climatology

Temperate oceanic climate (Köppen climate classification Cfb)

Runways

Designator Length Width Surface Rops
14/32 860 18 ASP No/No

Airport map

Aerial View

SKYbrary Partners:

Safety knowledge contributed by: